sensor_id;sensor_type;location;lat;lon;timestamp;temperature;humidity
23100;DHT22;53791;50.696;4.396;2023-08-08T00:01:07;14.70;99.90
23100;DHT22;53791;50.696;4.396;2023-08-08T00:03:35;14.70;99.90
23100;DHT22;53791;50.696;4.396;2023-08-08T00:06:03;14.60;99.90
23100;DHT22;53791;50.696;4.396;2023-08-08T00:08:30;14.70;99.90
23100;DHT22;53791;50.696;4.396;2023-08-08T00:10:58;14.60;99.90
23100;DHT22;53791;50.696;4.396;2023-08-08T00:13:25;14.60;99.90
23100;DHT22;53791;50.696;4.396;2023-08-08T00:15:53;14.60;99.90
23100;DHT22;53791;50.696;4.396;2023-08-08T00:18:20;14.60;99.90
23100;DHT22;53791;50.696;4.396;2023-08-08T00:20:48;14.60;99.90
23100;DHT22;53791;50.696;4.396;2023-08-08T00:23:15;14.60;99.90
23100;DHT22;53791;50.696;4.396;2023-08-08T00:25:43;14.60;99.90
23100;DHT22;53791;50.696;4.396;2023-08-08T00:28:12;14.60;99.90
23100;DHT22;53791;50.696;4.396;2023-08-08T00:30:40;14.70;99.90
23100;DHT22;53791;50.696;4.396;2023-08-08T00:33:07;14.60;99.90
23100;DHT22;53791;50.696;4.396;2023-08-08T00:35:34;14.50;99.90
23100;DHT22;53791;50.696;4.396;2023-08-08T00:38:02;14.50;99.90
23100;DHT22;53791;50.696;4.396;2023-08-08T00:40:30;14.60;99.90
23100;DHT22;53791;50.696;4.396;2023-08-08T00:42:58;14.50;99.90
23100;DHT22;53791;50.696;4.396;2023-08-08T00:45:25;14.50;99.90
23100;DHT22;53791;50.696;4.396;2023-08-08T00:47:53;14.50;99.90
23100;DHT22;53791;50.696;4.396;2023-08-08T00:50:21;14.50;99.90
23100;DHT22;53791;50.696;4.396;2023-08-08T00:52:49;14.50;99.90
23100;DHT22;53791;50.696;4.396;2023-08-08T00:55:17;14.50;99.90
23100;DHT22;53791;50.696;4.396;2023-08-08T00:57:45;14.40;99.90
23100;DHT22;53791;50.696;4.396;2023-08-08T01:00:13;14.50;99.90
23100;DHT22;53791;50.696;4.396;2023-08-08T01:02:40;14.50;99.90
23100;DHT22;53791;50.696;4.396;2023-08-08T01:05:08;14.50;99.90
23100;DHT22;53791;50.696;4.396;2023-08-08T01:07:54;14.40;99.90
23100;DHT22;53791;50.696;4.396;2023-08-08T01:10:33;14.50;99.90
23100;DHT22;53791;50.696;4.396;2023-08-08T01:13:11;14.50;99.90
23100;DHT22;53791;50.696;4.396;2023-08-08T01:15:38;14.50;99.90
23100;DHT22;53791;50.696;4.396;2023-08-08T01:18:08;14.50;99.90
23100;DHT22;53791;50.696;4.396;2023-08-08T01:20:37;14.50;99.90
23100;DHT22;53791;50.696;4.396;2023-08-08T01:23:19;14.40;99.90
23100;DHT22;53791;50.696;4.396;2023-08-08T01:25:42;14.50;99.90
23100;DHT22;53791;50.696;4.396;2023-08-08T01:28:10;14.50;99.90
23100;DHT22;53791;50.696;4.396;2023-08-08T01:30:38;14.40;99.90
23100;DHT22;53791;50.696;4.396;2023-08-08T01:33:06;14.40;99.90
23100;DHT22;53791;50.696;4.396;2023-08-08T01:35:38;14.40;99.90
23100;DHT22;53791;50.696;4.396;2023-08-08T01:38:22;14.40;99.90
23100;DHT22;53791;50.696;4.396;2023-08-08T01:40:48;14.40;99.90
23100;DHT22;53791;50.696;4.396;2023-08-08T01:43:17;14.40;99.90
23100;DHT22;53791;50.696;4.396;2023-08-08T01:45:45;14.40;99.90
23100;DHT22;53791;50.696;4.396;2023-08-08T01:48:12;14.40;99.90
23100;DHT22;53791;50.696;4.396;2023-08-08T01:53:04;14.40;99.90
23100;DHT22;53791;50.696;4.396;2023-08-08T01:55:32;14.30;99.90
23100;DHT22;53791;50.696;4.396;2023-08-08T01:57:59;14.30;99.90
23100;DHT22;53791;50.696;4.396;2023-08-08T02:00:27;14.20;99.90
23100;DHT22;53791;50.696;4.396;2023-08-08T02:02:54;14.30;99.90
23100;DHT22;53791;50.696;4.396;2023-08-08T02:05:22;14.30;99.90
23100;DHT22;53791;50.696;4.396;2023-08-08T02:07:49;14.20;99.90
23100;DHT22;53791;50.696;4.396;2023-08-08T02:10:17;14.20;99.90
23100;DHT22;53791;50.696;4.396;2023-08-08T02:12:44;14.20;99.90
23100;DHT22;53791;50.696;4.396;2023-08-08T02:15:12;14.30;99.90
23100;DHT22;53791;50.696;4.396;2023-08-08T02:17:39;14.30;99.90
23100;DHT22;53791;50.696;4.396;2023-08-08T02:20:07;14.30;99.90
23100;DHT22;53791;50.696;4.396;2023-08-08T02:22:35;14.30;99.90
23100;DHT22;53791;50.696;4.396;2023-08-08T02:25:03;14.20;99.90
23100;DHT22;53791;50.696;4.396;2023-08-08T02:27:31;14.40;99.90
23100;DHT22;53791;50.696;4.396;2023-08-08T02:29:58;14.30;99.90
23100;DHT22;53791;50.696;4.396;2023-08-08T02:32:26;14.30;99.90
23100;DHT22;53791;50.696;4.396;2023-08-08T02:34:53;14.20;99.90
23100;DHT22;53791;50.696;4.396;2023-08-08T02:37:21;14.30;99.90
23100;DHT22;53791;50.696;4.396;2023-08-08T02:39:48;14.30;99.90
23100;DHT22;53791;50.696;4.396;2023-08-08T02:42:16;14.40;99.90
23100;DHT22;53791;50.696;4.396;2023-08-08T02:44:43;14.40;99.90
23100;DHT22;53791;50.696;4.396;2023-08-08T02:47:11;14.30;99.90
23100;DHT22;53791;50.696;4.396;2023-08-08T02:49:38;14.30;99.90
23100;DHT22;53791;50.696;4.396;2023-08-08T02:52:06;14.30;99.90
23100;DHT22;53791;50.696;4.396;2023-08-08T02:54:34;14.20;99.90
23100;DHT22;53791;50.696;4.396;2023-08-08T02:57:01;14.10;99.90
23100;DHT22;53791;50.696;4.396;2023-08-08T02:59:29;14.20;99.90
23100;DHT22;53791;50.696;4.396;2023-08-08T03:01:57;14.20;99.90
23100;DHT22;53791;50.696;4.396;2023-08-08T03:04:24;14.10;99.90
23100;DHT22;53791;50.696;4.396;2023-08-08T03:06:52;14.10;99.90
23100;DHT22;53791;50.696;4.396;2023-08-08T03:09:19;14.10;99.90
23100;DHT22;53791;50.696;4.396;2023-08-08T03:11:47;14.10;99.90
23100;DHT22;53791;50.696;4.396;2023-08-08T03:14:14;14.10;99.90
23100;DHT22;53791;50.696;4.396;2023-08-08T03:16:42;14.10;99.90
23100;DHT22;53791;50.696;4.396;2023-08-08T03:19:09;14.20;99.90
23100;DHT22;53791;50.696;4.396;2023-08-08T03:21:37;14.10;99.90
23100;DHT22;53791;50.696;4.396;2023-08-08T03:24:05;14.10;99.90
23100;DHT22;53791;50.696;4.396;2023-08-08T03:26:32;14.00;99.90
23100;DHT22;53791;50.696;4.396;2023-08-08T03:29:00;14.00;99.90
23100;DHT22;53791;50.696;4.396;2023-08-08T03:31:27;14.10;99.90
23100;DHT22;53791;50.696;4.396;2023-08-08T03:33:55;14.00;99.90
23100;DHT22;53791;50.696;4.396;2023-08-08T03:36:22;14.00;99.90
23100;DHT22;53791;50.696;4.396;2023-08-08T03:38:50;14.00;99.90
23100;DHT22;53791;50.696;4.396;2023-08-08T03:41:17;14.00;99.90
23100;DHT22;53791;50.696;4.396;2023-08-08T03:43:45;14.00;99.90
23100;DHT22;53791;50.696;4.396;2023-08-08T03:46:12;13.90;99.90
23100;DHT22;53791;50.696;4.396;2023-08-08T03:48:40;13.90;99.90
23100;DHT22;53791;50.696;4.396;2023-08-08T03:51:07;14.00;99.90
23100;DHT22;53791;50.696;4.396;2023-08-08T03:53:35;13.90;99.90
23100;DHT22;53791;50.696;4.396;2023-08-08T03:56:02;13.90;99.90
23100;DHT22;53791;50.696;4.396;2023-08-08T03:58:30;14.00;99.90
23100;DHT22;53791;50.696;4.396;2023-08-08T04:00:57;14.00;99.90
23100;DHT22;53791;50.696;4.396;2023-08-08T04:03:25;14.10;99.90
23100;DHT22;53791;50.696;4.396;2023-08-08T04:05:52;14.00;99.90
23100;DHT22;53791;50.696;4.396;2023-08-08T04:08:20;13.90;99.90
23100;DHT22;53791;50.696;4.396;2023-08-08T04:10:47;13.90;99.90
23100;DHT22;53791;50.696;4.396;2023-08-08T04:13:15;13.90;99.90
23100;DHT22;53791;50.696;4.396;2023-08-08T04:15:42;13.90;99.90
23100;DHT22;53791;50.696;4.396;2023-08-08T04:18:11;13.90;99.90
23100;DHT22;53791;50.696;4.396;2023-08-08T04:20:39;13.70;99.90
23100;DHT22;53791;50.696;4.396;2023-08-08T04:23:06;13.90;99.90
23100;DHT22;53791;50.696;4.396;2023-08-08T04:25:34;13.80;99.90
23100;DHT22;53791;50.696;4.396;2023-08-08T04:28:01;13.90;99.90
23100;DHT22;53791;50.696;4.396;2023-08-08T04:30:29;13.90;99.90
23100;DHT22;53791;50.696;4.396;2023-08-08T04:32:56;13.90;99.90
23100;DHT22;53791;50.696;4.396;2023-08-08T04:35:24;13.80;99.90
23100;DHT22;53791;50.696;4.396;2023-08-08T04:37:51;13.80;99.90
23100;DHT22;53791;50.696;4.396;2023-08-08T04:40:19;13.90;99.90
23100;DHT22;53791;50.696;4.396;2023-08-08T04:42:46;13.80;99.90
23100;DHT22;53791;50.696;4.396;2023-08-08T04:45:14;13.90;99.90
23100;DHT22;53791;50.696;4.396;2023-08-08T04:47:41;13.90;99.90
23100;DHT22;53791;50.696;4.396;2023-08-08T04:50:09;13.90;99.90
23100;DHT22;53791;50.696;4.396;2023-08-08T04:52:37;13.90;99.90
23100;DHT22;53791;50.696;4.396;2023-08-08T04:55:05;13.90;99.90
23100;DHT22;53791;50.696;4.396;2023-08-08T04:57:32;13.90;99.90
23100;DHT22;53791;50.696;4.396;2023-08-08T05:00:00;13.80;99.90
23100;DHT22;53791;50.696;4.396;2023-08-08T05:02:29;13.90;99.90
23100;DHT22;53791;50.696;4.396;2023-08-08T05:04:57;13.90;99.90
23100;DHT22;53791;50.696;4.396;2023-08-08T05:07:25;13.80;99.90
23100;DHT22;53791;50.696;4.396;2023-08-08T05:09:53;13.80;99.90
23100;DHT22;53791;50.696;4.396;2023-08-08T05:12:20;13.80;99.90
23100;DHT22;53791;50.696;4.396;2023-08-08T05:14:48;13.80;99.90
23100;DHT22;53791;50.696;4.396;2023-08-08T05:17:15;13.80;99.90
23100;DHT22;53791;50.696;4.396;2023-08-08T05:19:43;13.80;99.90
23100;DHT22;53791;50.696;4.396;2023-08-08T05:22:10;13.90;99.90
23100;DHT22;53791;50.696;4.396;2023-08-08T05:24:38;13.90;99.90
23100;DHT22;53791;50.696;4.396;2023-08-08T05:27:06;14.00;99.90
23100;DHT22;53791;50.696;4.396;2023-08-08T05:29:33;14.10;99.90
23100;DHT22;53791;50.696;4.396;2023-08-08T05:32:02;14.00;99.90
23100;DHT22;53791;50.696;4.396;2023-08-08T05:34:32;14.00;99.90
23100;DHT22;53791;50.696;4.396;2023-08-08T05:37:00;14.10;99.90
23100;DHT22;53791;50.696;4.396;2023-08-08T05:39:27;14.10;99.90
23100;DHT22;53791;50.696;4.396;2023-08-08T05:41:55;14.10;99.90
23100;DHT22;53791;50.696;4.396;2023-08-08T05:44:22;14.10;99.90
23100;DHT22;53791;50.696;4.396;2023-08-08T05:46:50;14.20;99.90
23100;DHT22;53791;50.696;4.396;2023-08-08T05:49:17;14.30;99.90
23100;DHT22;53791;50.696;4.396;2023-08-08T05:51:45;14.40;99.90
23100;DHT22;53791;50.696;4.396;2023-08-08T05:54:12;14.40;99.90
23100;DHT22;53791;50.696;4.396;2023-08-08T05:56:40;14.50;99.90
23100;DHT22;53791;50.696;4.396;2023-08-08T05:59:07;14.60;99.90
23100;DHT22;53791;50.696;4.396;2023-08-08T06:01:35;14.70;99.90
23100;DHT22;53791;50.696;4.396;2023-08-08T06:04:03;14.60;99.90
23100;DHT22;53791;50.696;4.396;2023-08-08T06:06:30;14.60;99.90
23100;DHT22;53791;50.696;4.396;2023-08-08T06:08:58;14.70;99.90
23100;DHT22;53791;50.696;4.396;2023-08-08T06:11:25;14.80;99.90
23100;DHT22;53791;50.696;4.396;2023-08-08T06:13:53;14.90;99.90
23100;DHT22;53791;50.696;4.396;2023-08-08T06:16:21;15.00;99.90
23100;DHT22;53791;50.696;4.396;2023-08-08T06:18:49;15.00;99.90
23100;DHT22;53791;50.696;4.396;2023-08-08T06:21:16;15.10;99.90
23100;DHT22;53791;50.696;4.396;2023-08-08T06:23:44;15.20;99.90
23100;DHT22;53791;50.696;4.396;2023-08-08T06:26:11;15.30;99.90
23100;DHT22;53791;50.696;4.396;2023-08-08T06:28:39;15.40;99.90
23100;DHT22;53791;50.696;4.396;2023-08-08T06:31:06;15.50;99.90
23100;DHT22;53791;50.696;4.396;2023-08-08T06:33:34;15.60;99.90
23100;DHT22;53791;50.696;4.396;2023-08-08T06:36:02;15.70;99.90
23100;DHT22;53791;50.696;4.396;2023-08-08T06:38:30;15.70;99.90
23100;DHT22;53791;50.696;4.396;2023-08-08T06:41:02;15.70;99.90
23100;DHT22;53791;50.696;4.396;2023-08-08T06:43:30;15.70;99.90
23100;DHT22;53791;50.696;4.396;2023-08-08T06:45:58;15.70;99.90
23100;DHT22;53791;50.696;4.396;2023-08-08T06:48:25;15.80;99.90
23100;DHT22;53791;50.696;4.396;2023-08-08T06:50:53;15.80;99.90
23100;DHT22;53791;50.696;4.396;2023-08-08T06:53:21;15.70;99.90
23100;DHT22;53791;50.696;4.396;2023-08-08T06:55:48;15.80;99.90
23100;DHT22;53791;50.696;4.396;2023-08-08T06:58:16;15.80;99.90
23100;DHT22;53791;50.696;4.396;2023-08-08T07:00:44;15.90;99.90
23100;DHT22;53791;50.696;4.396;2023-08-08T07:03:11;16.00;99.90
23100;DHT22;53791;50.696;4.396;2023-08-08T07:05:39;15.90;99.90
23100;DHT22;53791;50.696;4.396;2023-08-08T07:08:06;15.90;99.90
23100;DHT22;53791;50.696;4.396;2023-08-08T07:10:36;16.00;99.90
23100;DHT22;53791;50.696;4.396;2023-08-08T07:13:03;16.00;99.90
23100;DHT22;53791;50.696;4.396;2023-08-08T07:15:31;15.90;99.90
23100;DHT22;53791;50.696;4.396;2023-08-08T07:17:59;16.10;99.90
23100;DHT22;53791;50.696;4.396;2023-08-08T07:20:26;16.10;99.90
23100;DHT22;53791;50.696;4.396;2023-08-08T07:22:55;16.00;99.90
23100;DHT22;53791;50.696;4.396;2023-08-08T07:25:23;16.00;99.90
23100;DHT22;53791;50.696;4.396;2023-08-08T07:27:50;15.90;99.90
23100;DHT22;53791;50.696;4.396;2023-08-08T07:30:18;15.90;99.90
23100;DHT22;53791;50.696;4.396;2023-08-08T07:32:45;16.00;99.90
23100;DHT22;53791;50.696;4.396;2023-08-08T07:35:13;16.10;99.90
23100;DHT22;53791;50.696;4.396;2023-08-08T07:37:41;16.30;99.90
23100;DHT22;53791;50.696;4.396;2023-08-08T07:40:16;16.30;99.90
23100;DHT22;53791;50.696;4.396;2023-08-08T07:42:48;16.40;99.90
23100;DHT22;53791;50.696;4.396;2023-08-08T07:45:16;16.40;99.90
23100;DHT22;53791;50.696;4.396;2023-08-08T07:47:44;16.50;99.90
23100;DHT22;53791;50.696;4.396;2023-08-08T07:50:12;16.60;99.90
23100;DHT22;53791;50.696;4.396;2023-08-08T07:52:40;16.60;99.90
23100;DHT22;53791;50.696;4.396;2023-08-08T07:55:08;16.30;99.90
23100;DHT22;53791;50.696;4.396;2023-08-08T07:57:36;16.30;99.90
23100;DHT22;53791;50.696;4.396;2023-08-08T08:00:04;16.40;99.90
23100;DHT22;53791;50.696;4.396;2023-08-08T08:02:33;16.40;99.90
23100;DHT22;53791;50.696;4.396;2023-08-08T08:05:01;16.30;99.90
23100;DHT22;53791;50.696;4.396;2023-08-08T08:07:31;16.40;99.90
23100;DHT22;53791;50.696;4.396;2023-08-08T08:09:59;16.60;99.90
23100;DHT22;53791;50.696;4.396;2023-08-08T08:12:26;16.50;99.90
23100;DHT22;53791;50.696;4.396;2023-08-08T08:14:54;16.50;99.90
23100;DHT22;53791;50.696;4.396;2023-08-08T08:17:21;16.50;99.90
23100;DHT22;53791;50.696;4.396;2023-08-08T08:19:51;16.50;99.90
23100;DHT22;53791;50.696;4.396;2023-08-08T08:22:18;16.60;99.90
23100;DHT22;53791;50.696;4.396;2023-08-08T08:24:46;16.60;99.90
23100;DHT22;53791;50.696;4.396;2023-08-08T08:27:13;16.70;99.90
23100;DHT22;53791;50.696;4.396;2023-08-08T08:29:41;16.70;99.90
23100;DHT22;53791;50.696;4.396;2023-08-08T08:32:08;16.80;99.90
23100;DHT22;53791;50.696;4.396;2023-08-08T08:34:36;17.00;99.90
23100;DHT22;53791;50.696;4.396;2023-08-08T08:37:03;17.00;99.90
23100;DHT22;53791;50.696;4.396;2023-08-08T08:39:31;17.10;99.90
23100;DHT22;53791;50.696;4.396;2023-08-08T08:42:00;17.20;99.90
23100;DHT22;53791;50.696;4.396;2023-08-08T08:44:32;17.30;99.90
23100;DHT22;53791;50.696;4.396;2023-08-08T08:47:04;17.30;99.90
23100;DHT22;53791;50.696;4.396;2023-08-08T08:49:35;17.30;99.90
23100;DHT22;53791;50.696;4.396;2023-08-08T08:52:04;17.20;99.90
23100;DHT22;53791;50.696;4.396;2023-08-08T08:54:32;17.30;99.90
23100;DHT22;53791;50.696;4.396;2023-08-08T08:57:00;17.40;99.90
23100;DHT22;53791;50.696;4.396;2023-08-08T08:59:28;17.50;99.90
23100;DHT22;53791;50.696;4.396;2023-08-08T09:01:56;17.60;99.90
23100;DHT22;53791;50.696;4.396;2023-08-08T09:04:24;17.70;99.90
23100;DHT22;53791;50.696;4.396;2023-08-08T09:06:52;17.60;99.90
23100;DHT22;53791;50.696;4.396;2023-08-08T09:09:19;17.60;99.90
23100;DHT22;53791;50.696;4.396;2023-08-08T09:11:50;17.70;99.90
23100;DHT22;53791;50.696;4.396;2023-08-08T09:14:18;17.80;99.90
23100;DHT22;53791;50.696;4.396;2023-08-08T09:16:47;17.90;99.90
23100;DHT22;53791;50.696;4.396;2023-08-08T09:19:16;17.90;99.90
23100;DHT22;53791;50.696;4.396;2023-08-08T09:21:46;17.90;99.90
23100;DHT22;53791;50.696;4.396;2023-08-08T09:24:13;17.80;99.90
23100;DHT22;53791;50.696;4.396;2023-08-08T09:26:42;17.60;99.90
23100;DHT22;53791;50.696;4.396;2023-08-08T09:29:14;17.70;99.90
23100;DHT22;53791;50.696;4.396;2023-08-08T09:31:41;17.70;99.90
23100;DHT22;53791;50.696;4.396;2023-08-08T09:34:09;17.80;99.90
23100;DHT22;53791;50.696;4.396;2023-08-08T09:36:37;17.90;99.90
23100;DHT22;53791;50.696;4.396;2023-08-08T09:39:04;18.00;99.90
23100;DHT22;53791;50.696;4.396;2023-08-08T09:41:33;18.10;99.90
23100;DHT22;53791;50.696;4.396;2023-08-08T09:44:01;18.10;99.90
23100;DHT22;53791;50.696;4.396;2023-08-08T09:46:30;18.20;99.90
23100;DHT22;53791;50.696;4.396;2023-08-08T09:48:58;18.40;99.90
23100;DHT22;53791;50.696;4.396;2023-08-08T09:51:26;18.30;99.90
23100;DHT22;53791;50.696;4.396;2023-08-08T09:53:55;18.30;99.90
23100;DHT22;53791;50.696;4.396;2023-08-08T09:56:24;18.30;99.90
23100;DHT22;53791;50.696;4.396;2023-08-08T09:58:53;18.40;99.90
23100;DHT22;53791;50.696;4.396;2023-08-08T10:01:20;18.50;99.90
23100;DHT22;53791;50.696;4.396;2023-08-08T10:03:50;18.60;99.90
23100;DHT22;53791;50.696;4.396;2023-08-08T10:06:18;18.70;99.90
23100;DHT22;53791;50.696;4.396;2023-08-08T10:08:46;19.00;99.90
23100;DHT22;53791;50.696;4.396;2023-08-08T10:11:14;19.10;99.90
23100;DHT22;53791;50.696;4.396;2023-08-08T10:13:49;19.20;99.90
23100;DHT22;53791;50.696;4.396;2023-08-08T10:16:17;19.10;99.90
23100;DHT22;53791;50.696;4.396;2023-08-08T10:19:02;18.80;99.90
23100;DHT22;53791;50.696;4.396;2023-08-08T10:21:40;18.70;99.90
23100;DHT22;53791;50.696;4.396;2023-08-08T10:24:10;18.70;99.90
23100;DHT22;53791;50.696;4.396;2023-08-08T10:26:54;18.60;99.90
23100;DHT22;53791;50.696;4.396;2023-08-08T10:29:25;18.40;99.90
23100;DHT22;53791;50.696;4.396;2023-08-08T10:31:57;18.30;99.90
23100;DHT22;53791;50.696;4.396;2023-08-08T10:34:27;18.20;99.90
23100;DHT22;53791;50.696;4.396;2023-08-08T10:36:57;18.20;99.90
23100;DHT22;53791;50.696;4.396;2023-08-08T10:39:25;18.20;99.90
23100;DHT22;53791;50.696;4.396;2023-08-08T10:41:53;18.20;99.90
23100;DHT22;53791;50.696;4.396;2023-08-08T10:44:25;18.10;99.90
23100;DHT22;53791;50.696;4.396;2023-08-08T10:46:53;18.00;99.90
23100;DHT22;53791;50.696;4.396;2023-08-08T10:49:21;17.90;99.90
23100;DHT22;53791;50.696;4.396;2023-08-08T10:51:50;18.00;99.90
23100;DHT22;53791;50.696;4.396;2023-08-08T10:54:25;18.00;99.90
23100;DHT22;53791;50.696;4.396;2023-08-08T10:56:58;18.10;99.90
23100;DHT22;53791;50.696;4.396;2023-08-08T10:59:36;18.30;99.90
23100;DHT22;53791;50.696;4.396;2023-08-08T11:01:57;18.20;99.90
23100;DHT22;53791;50.696;4.396;2023-08-08T11:04:26;18.30;99.90
23100;DHT22;53791;50.696;4.396;2023-08-08T11:06:56;18.40;99.90
23100;DHT22;53791;50.696;4.396;2023-08-08T11:09:24;18.50;99.90
23100;DHT22;53791;50.696;4.396;2023-08-08T11:14:36;18.20;99.90
23100;DHT22;53791;50.696;4.396;2023-08-08T11:20:16;18.30;99.90
23100;DHT22;53791;50.696;4.396;2023-08-08T11:22:44;18.40;99.90
23100;DHT22;53791;50.696;4.396;2023-08-08T11:25:15;18.60;99.90
23100;DHT22;53791;50.696;4.396;2023-08-08T11:27:54;18.60;99.90
23100;DHT22;53791;50.696;4.396;2023-08-08T11:30:26;18.70;99.90
23100;DHT22;53791;50.696;4.396;2023-08-08T11:32:53;18.70;99.90
23100;DHT22;53791;50.696;4.396;2023-08-08T11:35:24;18.60;99.90
23100;DHT22;53791;50.696;4.396;2023-08-08T11:37:55;18.50;99.90
23100;DHT22;53791;50.696;4.396;2023-08-08T11:40:29;18.40;99.90
23100;DHT22;53791;50.696;4.396;2023-08-08T11:42:54;18.40;99.90
23100;DHT22;53791;50.696;4.396;2023-08-08T11:45:23;18.30;99.90
23100;DHT22;53791;50.696;4.396;2023-08-08T11:47:55;18.20;99.90
23100;DHT22;53791;50.696;4.396;2023-08-08T11:50:24;18.20;99.90
23100;DHT22;53791;50.696;4.396;2023-08-08T11:52:54;18.20;99.90
23100;DHT22;53791;50.696;4.396;2023-08-08T11:55:29;18.40;99.90
23100;DHT22;53791;50.696;4.396;2023-08-08T11:57:59;18.40;99.90
23100;DHT22;53791;50.696;4.396;2023-08-08T12:00:28;18.50;99.90
23100;DHT22;53791;50.696;4.396;2023-08-08T12:02:57;18.60;99.90
23100;DHT22;53791;50.696;4.396;2023-08-08T12:05:25;18.60;99.90
23100;DHT22;53791;50.696;4.396;2023-08-08T12:07:53;18.60;99.90
23100;DHT22;53791;50.696;4.396;2023-08-08T12:10:22;18.70;99.90
23100;DHT22;53791;50.696;4.396;2023-08-08T12:12:55;18.70;99.90
23100;DHT22;53791;50.696;4.396;2023-08-08T12:15:27;18.50;99.90
23100;DHT22;53791;50.696;4.396;2023-08-08T12:17:53;18.50;99.90
23100;DHT22;53791;50.696;4.396;2023-08-08T12:20:20;18.50;99.90
23100;DHT22;53791;50.696;4.396;2023-08-08T12:22:48;18.60;99.90
23100;DHT22;53791;50.696;4.396;2023-08-08T12:25:15;18.80;99.90
23100;DHT22;53791;50.696;4.396;2023-08-08T12:27:43;18.80;99.90
23100;DHT22;53791;50.696;4.396;2023-08-08T12:30:11;18.90;99.90
23100;DHT22;53791;50.696;4.396;2023-08-08T12:32:38;19.00;99.90
23100;DHT22;53791;50.696;4.396;2023-08-08T12:35:06;18.80;99.90
23100;DHT22;53791;50.696;4.396;2023-08-08T12:37:34;18.80;99.90
23100;DHT22;53791;50.696;4.396;2023-08-08T12:40:02;18.60;99.90
23100;DHT22;53791;50.696;4.396;2023-08-08T12:42:29;18.40;99.90
23100;DHT22;53791;50.696;4.396;2023-08-08T12:44:57;18.30;99.90
23100;DHT22;53791;50.696;4.396;2023-08-08T12:47:25;18.20;99.90
23100;DHT22;53791;50.696;4.396;2023-08-08T12:49:52;18.30;99.90
23100;DHT22;53791;50.696;4.396;2023-08-08T12:52:20;18.50;99.90
23100;DHT22;53791;50.696;4.396;2023-08-08T12:54:47;18.60;99.90
23100;DHT22;53791;50.696;4.396;2023-08-08T12:57:15;18.60;99.90
23100;DHT22;53791;50.696;4.396;2023-08-08T12:59:42;18.70;99.90
23100;DHT22;53791;50.696;4.396;2023-08-08T13:02:10;18.90;99.90
23100;DHT22;53791;50.696;4.396;2023-08-08T13:04:37;19.10;99.90
23100;DHT22;53791;50.696;4.396;2023-08-08T13:07:05;19.10;99.90
23100;DHT22;53791;50.696;4.396;2023-08-08T13:12:16;19.30;99.90
23100;DHT22;53791;50.696;4.396;2023-08-08T13:14:43;19.30;99.90
23100;DHT22;53791;50.696;4.396;2023-08-08T13:17:11;19.20;99.90
23100;DHT22;53791;50.696;4.396;2023-08-08T13:19:39;19.30;99.90
23100;DHT22;53791;50.696;4.396;2023-08-08T13:22:07;19.40;99.90
23100;DHT22;53791;50.696;4.396;2023-08-08T13:24:44;19.70;99.90
23100;DHT22;53791;50.696;4.396;2023-08-08T13:27:20;19.80;99.90
23100;DHT22;53791;50.696;4.396;2023-08-08T13:29:42;19.80;99.90
23100;DHT22;53791;50.696;4.396;2023-08-08T13:32:09;19.70;99.90
23100;DHT22;53791;50.696;4.396;2023-08-08T13:34:37;19.60;99.90
23100;DHT22;53791;50.696;4.396;2023-08-08T13:37:04;19.60;99.90
23100;DHT22;53791;50.696;4.396;2023-08-08T13:39:32;19.70;99.90
23100;DHT22;53791;50.696;4.396;2023-08-08T13:41:59;19.50;99.90
23100;DHT22;53791;50.696;4.396;2023-08-08T13:44:27;19.40;99.90
23100;DHT22;53791;50.696;4.396;2023-08-08T13:46:59;19.20;99.90
23100;DHT22;53791;50.696;4.396;2023-08-08T13:49:49;19.20;99.90
23100;DHT22;53791;50.696;4.396;2023-08-08T13:52:10;19.20;99.90
23100;DHT22;53791;50.696;4.396;2023-08-08T13:54:38;19.40;99.90
23100;DHT22;53791;50.696;4.396;2023-08-08T13:57:07;19.70;99.90
23100;DHT22;53791;50.696;4.396;2023-08-08T14:00:03;20.00;99.90
23100;DHT22;53791;50.696;4.396;2023-08-08T14:02:30;20.20;99.90
23100;DHT22;53791;50.696;4.396;2023-08-08T14:04:58;20.20;99.90
23100;DHT22;53791;50.696;4.396;2023-08-08T14:07:25;20.00;99.90
23100;DHT22;53791;50.696;4.396;2023-08-08T14:09:54;19.90;99.90
23100;DHT22;53791;50.696;4.396;2023-08-08T14:12:23;19.70;99.90
23100;DHT22;53791;50.696;4.396;2023-08-08T14:14:50;19.60;99.90
23100;DHT22;53791;50.696;4.396;2023-08-08T14:17:18;19.50;99.90
23100;DHT22;53791;50.696;4.396;2023-08-08T14:19:45;19.40;99.90
23100;DHT22;53791;50.696;4.396;2023-08-08T14:22:19;19.30;99.90
23100;DHT22;53791;50.696;4.396;2023-08-08T14:24:49;19.30;99.90
23100;DHT22;53791;50.696;4.396;2023-08-08T14:27:17;19.10;99.90
23100;DHT22;53791;50.696;4.396;2023-08-08T14:29:44;19.20;99.90
23100;DHT22;53791;50.696;4.396;2023-08-08T14:32:12;19.10;99.90
23100;DHT22;53791;50.696;4.396;2023-08-08T14:34:39;19.10;99.90
23100;DHT22;53791;50.696;4.396;2023-08-08T14:37:07;18.90;99.90
23100;DHT22;53791;50.696;4.396;2023-08-08T14:39:35;18.80;99.90
23100;DHT22;53791;50.696;4.396;2023-08-08T14:42:02;18.80;99.90
23100;DHT22;53791;50.696;4.396;2023-08-08T14:44:30;18.80;99.90
23100;DHT22;53791;50.696;4.396;2023-08-08T14:46:57;18.90;99.90
23100;DHT22;53791;50.696;4.396;2023-08-08T14:49:25;18.80;99.90
23100;DHT22;53791;50.696;4.396;2023-08-08T14:51:53;18.90;99.90
23100;DHT22;53791;50.696;4.396;2023-08-08T14:54:21;18.90;99.90
23100;DHT22;53791;50.696;4.396;2023-08-08T14:56:51;19.00;99.90
23100;DHT22;53791;50.696;4.396;2023-08-08T14:59:22;19.00;99.90
23100;DHT22;53791;50.696;4.396;2023-08-08T15:01:49;19.00;99.90
23100;DHT22;53791;50.696;4.396;2023-08-08T15:04:17;19.00;99.90
23100;DHT22;53791;50.696;4.396;2023-08-08T15:06:50;19.00;99.90
23100;DHT22;53791;50.696;4.396;2023-08-08T15:09:18;19.10;99.90
23100;DHT22;53791;50.696;4.396;2023-08-08T15:11:46;19.20;99.90
23100;DHT22;53791;50.696;4.396;2023-08-08T15:14:15;19.20;99.90
23100;DHT22;53791;50.696;4.396;2023-08-08T15:16:53;19.00;99.90
23100;DHT22;53791;50.696;4.396;2023-08-08T15:19:21;19.10;99.90
23100;DHT22;53791;50.696;4.396;2023-08-08T15:21:48;19.10;99.90
23100;DHT22;53791;50.696;4.396;2023-08-08T15:24:17;19.00;99.90
23100;DHT22;53791;50.696;4.396;2023-08-08T15:26:45;19.10;99.90
23100;DHT22;53791;50.696;4.396;2023-08-08T15:29:12;19.10;99.90
23100;DHT22;53791;50.696;4.396;2023-08-08T15:31:45;19.10;99.90
23100;DHT22;53791;50.696;4.396;2023-08-08T15:34:10;18.90;99.90
23100;DHT22;53791;50.696;4.396;2023-08-08T15:36:40;18.80;99.90
23100;DHT22;53791;50.696;4.396;2023-08-08T15:39:10;18.90;99.90
23100;DHT22;53791;50.696;4.396;2023-08-08T15:41:38;18.80;99.90
23100;DHT22;53791;50.696;4.396;2023-08-08T15:44:14;18.80;99.90
23100;DHT22;53791;50.696;4.396;2023-08-08T15:49:20;18.70;99.90
23100;DHT22;53791;50.696;4.396;2023-08-08T15:51:46;18.80;99.90